sensor_id;sensor_type;location;lat;lon;timestamp;P1;durP1;ratioP1;P2;durP2;ratioP2
32639;SDS011;19049;52.524;11.468;2024-01-30T00:00:42;5.80;;;3.67;;
32639;SDS011;19049;52.524;11.468;2024-01-30T00:03:08;5.17;;;3.10;;
32639;SDS011;19049;52.524;11.468;2024-01-30T00:05:33;6.07;;;3.13;;
32639;SDS011;19049;52.524;11.468;2024-01-30T00:07:59;4.93;;;2.83;;
32639;SDS011;19049;52.524;11.468;2024-01-30T00:10:24;6.43;;;3.23;;
32639;SDS011;19049;52.524;11.468;2024-01-30T00:12:50;5.40;;;3.00;;
32639;SDS011;19049;52.524;11.468;2024-01-30T00:15:15;5.20;;;3.23;;
32639;SDS011;19049;52.524;11.468;2024-01-30T00:17:41;6.33;;;3.37;;
32639;SDS011;19049;52.524;11.468;2024-01-30T00:20:06;7.13;;;4.17;;
32639;SDS011;19049;52.524;11.468;2024-01-30T00:22:34;5.13;;;3.67;;
32639;SDS011;19049;52.524;11.468;2024-01-30T00:24:59;7.70;;;4.27;;
32639;SDS011;19049;52.524;11.468;2024-01-30T00:27:25;4.67;;;3.40;;
32639;SDS011;19049;52.524;11.468;2024-01-30T00:29:52;6.93;;;3.60;;
32639;SDS011;19049;52.524;11.468;2024-01-30T00:32:17;5.67;;;3.63;;
32639;SDS011;19049;52.524;11.468;2024-01-30T00:34:44;5.13;;;3.43;;
32639;SDS011;19049;52.524;11.468;2024-01-30T00:37:09;6.70;;;3.50;;
32639;SDS011;19049;52.524;11.468;2024-01-30T00:39:35;5.10;;;3.30;;
32639;SDS011;19049;52.524;11.468;2024-01-30T00:42:01;4.60;;;3.13;;
32639;SDS011;19049;52.524;11.468;2024-01-30T00:44:26;4.87;;;3.50;;
32639;SDS011;19049;52.524;11.468;2024-01-30T00:46:52;5.50;;;3.40;;
32639;SDS011;19049;52.524;11.468;2024-01-30T00:49:18;6.57;;;3.80;;
32639;SDS011;19049;52.524;11.468;2024-01-30T00:51:43;5.27;;;3.53;;
32639;SDS011;19049;52.524;11.468;2024-01-30T00:54:09;6.10;;;3.80;;
32639;SDS011;19049;52.524;11.468;2024-01-30T00:56:35;5.50;;;3.50;;
32639;SDS011;19049;52.524;11.468;2024-01-30T00:59:00;7.70;;;3.90;;
32639;SDS011;19049;52.524;11.468;2024-01-30T01:01:26;7.20;;;4.60;;
32639;SDS011;19049;52.524;11.468;2024-01-30T01:03:51;6.33;;;3.97;;
32639;SDS011;19049;52.524;11.468;2024-01-30T01:06:17;8.77;;;4.40;;
32639;SDS011;19049;52.524;11.468;2024-01-30T01:08:42;8.53;;;4.70;;
32639;SDS011;19049;52.524;11.468;2024-01-30T01:11:08;7.50;;;4.37;;
32639;SDS011;19049;52.524;11.468;2024-01-30T01:13:34;10.57;;;4.63;;
32639;SDS011;19049;52.524;11.468;2024-01-30T01:15:59;6.60;;;4.20;;
32639;SDS011;19049;52.524;11.468;2024-01-30T01:18:25;6.67;;;3.93;;
32639;SDS011;19049;52.524;11.468;2024-01-30T01:20:52;5.93;;;4.10;;
32639;SDS011;19049;52.524;11.468;2024-01-30T01:23:17;5.13;;;3.40;;
32639;SDS011;19049;52.524;11.468;2024-01-30T01:25:43;6.77;;;4.17;;
32639;SDS011;19049;52.524;11.468;2024-01-30T01:28:09;5.40;;;3.70;;
32639;SDS011;19049;52.524;11.468;2024-01-30T01:30:35;6.53;;;4.10;;
32639;SDS011;19049;52.524;11.468;2024-01-30T01:33:00;8.47;;;4.77;;
32639;SDS011;19049;52.524;11.468;2024-01-30T01:35:27;6.20;;;4.03;;
32639;SDS011;19049;52.524;11.468;2024-01-30T01:37:53;4.37;;;3.20;;
32639;SDS011;19049;52.524;11.468;2024-01-30T01:40:24;5.20;;;2.87;;
32639;SDS011;19049;52.524;11.468;2024-01-30T01:42:51;5.13;;;3.13;;
32639;SDS011;19049;52.524;11.468;2024-01-30T01:45:18;5.30;;;3.40;;
32639;SDS011;19049;52.524;11.468;2024-01-30T01:47:44;4.77;;;2.77;;
32639;SDS011;19049;52.524;11.468;2024-01-30T01:50:13;6.80;;;3.43;;
32639;SDS011;19049;52.524;11.468;2024-01-30T01:52:43;4.63;;;3.03;;
32639;SDS011;19049;52.524;11.468;2024-01-30T01:55:10;5.97;;;3.80;;
32639;SDS011;19049;52.524;11.468;2024-01-30T01:57:36;7.10;;;4.53;;
32639;SDS011;19049;52.524;11.468;2024-01-30T02:00:01;6.93;;;4.23;;
32639;SDS011;19049;52.524;11.468;2024-01-30T02:02:30;6.67;;;4.47;;
32639;SDS011;19049;52.524;11.468;2024-01-30T02:04:59;6.40;;;4.30;;
32639;SDS011;19049;52.524;11.468;2024-01-30T02:07:25;7.30;;;4.73;;
32639;SDS011;19049;52.524;11.468;2024-01-30T02:09:51;8.67;;;4.23;;
32639;SDS011;19049;52.524;11.468;2024-01-30T02:12:17;5.10;;;3.43;;
32639;SDS011;19049;52.524;11.468;2024-01-30T02:14:46;5.20;;;3.80;;
32639;SDS011;19049;52.524;11.468;2024-01-30T02:17:12;5.27;;;3.17;;
32639;SDS011;19049;52.524;11.468;2024-01-30T02:19:39;5.33;;;3.10;;
32639;SDS011;19049;52.524;11.468;2024-01-30T02:22:04;4.30;;;3.17;;
32639;SDS011;19049;52.524;11.468;2024-01-30T02:24:31;4.47;;;3.17;;
32639;SDS011;19049;52.524;11.468;2024-01-30T02:26:56;3.37;;;2.43;;
32639;SDS011;19049;52.524;11.468;2024-01-30T02:29:22;5.40;;;2.90;;
32639;SDS011;19049;52.524;11.468;2024-01-30T02:31:47;3.60;;;2.43;;
32639;SDS011;19049;52.524;11.468;2024-01-30T02:34:13;4.80;;;2.80;;
32639;SDS011;19049;52.524;11.468;2024-01-30T02:36:42;3.67;;;2.50;;
32639;SDS011;19049;52.524;11.468;2024-01-30T02:39:08;4.93;;;3.97;;
32639;SDS011;19049;52.524;11.468;2024-01-30T02:41:33;4.77;;;3.53;;
32639;SDS011;19049;52.524;11.468;2024-01-30T02:43:59;5.50;;;3.60;;
32639;SDS011;19049;52.524;11.468;2024-01-30T02:46:24;8.87;;;4.40;;
32639;SDS011;19049;52.524;11.468;2024-01-30T02:48:50;5.90;;;3.77;;
32639;SDS011;19049;52.524;11.468;2024-01-30T02:51:16;5.53;;;3.50;;
32639;SDS011;19049;52.524;11.468;2024-01-30T02:53:42;5.53;;;3.20;;
32639;SDS011;19049;52.524;11.468;2024-01-30T02:56:07;3.83;;;2.80;;
32639;SDS011;19049;52.524;11.468;2024-01-30T02:58:35;3.17;;;2.67;;
32639;SDS011;19049;52.524;11.468;2024-01-30T03:01:01;4.40;;;3.10;;
32639;SDS011;19049;52.524;11.468;2024-01-30T03:03:27;4.77;;;3.37;;
32639;SDS011;19049;52.524;11.468;2024-01-30T03:05:52;5.23;;;3.40;;
32639;SDS011;19049;52.524;11.468;2024-01-30T03:08:18;5.70;;;3.40;;
32639;SDS011;19049;52.524;11.468;2024-01-30T03:10:43;5.60;;;3.93;;
32639;SDS011;19049;52.524;11.468;2024-01-30T03:13:09;7.37;;;4.60;;
32639;SDS011;19049;52.524;11.468;2024-01-30T03:15:34;7.00;;;4.00;;
32639;SDS011;19049;52.524;11.468;2024-01-30T03:18:01;6.10;;;4.27;;
32639;SDS011;19049;52.524;11.468;2024-01-30T03:20:28;5.37;;;3.90;;
32639;SDS011;19049;52.524;11.468;2024-01-30T03:22:55;5.97;;;4.10;;
32639;SDS011;19049;52.524;11.468;2024-01-30T03:25:21;4.77;;;3.43;;
32639;SDS011;19049;52.524;11.468;2024-01-30T03:27:46;6.13;;;4.13;;
32639;SDS011;19049;52.524;11.468;2024-01-30T03:30:12;6.40;;;4.17;;
32639;SDS011;19049;52.524;11.468;2024-01-30T03:32:37;6.53;;;4.00;;
32639;SDS011;19049;52.524;11.468;2024-01-30T03:35:03;7.90;;;4.93;;
32639;SDS011;19049;52.524;11.468;2024-01-30T03:37:29;6.93;;;5.00;;
32639;SDS011;19049;52.524;11.468;2024-01-30T03:39:55;9.30;;;6.10;;
32639;SDS011;19049;52.524;11.468;2024-01-30T03:42:20;10.30;;;6.00;;
32639;SDS011;19049;52.524;11.468;2024-01-30T03:44:47;7.13;;;5.23;;
32639;SDS011;19049;52.524;11.468;2024-01-30T03:47:13;10.73;;;5.70;;
32639;SDS011;19049;52.524;11.468;2024-01-30T03:49:38;6.80;;;5.40;;
32639;SDS011;19049;52.524;11.468;2024-01-30T03:52:04;7.83;;;5.50;;
32639;SDS011;19049;52.524;11.468;2024-01-30T03:54:30;9.50;;;5.40;;
32639;SDS011;19049;52.524;11.468;2024-01-30T03:56:56;8.27;;;5.37;;
32639;SDS011;19049;52.524;11.468;2024-01-30T03:59:21;9.53;;;5.60;;
32639;SDS011;19049;52.524;11.468;2024-01-30T04:01:49;8.43;;;6.23;;
32639;SDS011;19049;52.524;11.468;2024-01-30T04:04:16;10.53;;;6.77;;
32639;SDS011;19049;52.524;11.468;2024-01-30T04:06:42;10.27;;;7.13;;
32639;SDS011;19049;52.524;11.468;2024-01-30T04:09:08;10.33;;;7.13;;
32639;SDS011;19049;52.524;11.468;2024-01-30T04:11:34;10.80;;;6.80;;
32639;SDS011;19049;52.524;11.468;2024-01-30T04:13:59;11.33;;;6.83;;
32639;SDS011;19049;52.524;11.468;2024-01-30T04:16:25;7.97;;;6.17;;
32639;SDS011;19049;52.524;11.468;2024-01-30T04:18:51;10.77;;;6.50;;
32639;SDS011;19049;52.524;11.468;2024-01-30T04:21:17;10.40;;;6.10;;
32639;SDS011;19049;52.524;11.468;2024-01-30T04:23:42;8.20;;;5.77;;
32639;SDS011;19049;52.524;11.468;2024-01-30T04:26:08;8.37;;;5.73;;
32639;SDS011;19049;52.524;11.468;2024-01-30T04:28:34;7.43;;;5.50;;
32639;SDS011;19049;52.524;11.468;2024-01-30T04:30:59;7.57;;;5.60;;
32639;SDS011;19049;52.524;11.468;2024-01-30T04:33:25;8.00;;;5.33;;
32639;SDS011;19049;52.524;11.468;2024-01-30T04:35:50;7.87;;;5.00;;
32639;SDS011;19049;52.524;11.468;2024-01-30T04:38:16;7.43;;;4.50;;
32639;SDS011;19049;52.524;11.468;2024-01-30T04:40:42;5.93;;;4.37;;
32639;SDS011;19049;52.524;11.468;2024-01-30T04:43:08;5.73;;;4.37;;
32639;SDS011;19049;52.524;11.468;2024-01-30T04:45:34;4.50;;;3.57;;
32639;SDS011;19049;52.524;11.468;2024-01-30T04:47:59;8.23;;;3.83;;
32639;SDS011;19049;52.524;11.468;2024-01-30T04:50:25;5.20;;;3.70;;
32639;SDS011;19049;52.524;11.468;2024-01-30T04:52:51;5.33;;;3.83;;
32639;SDS011;19049;52.524;11.468;2024-01-30T04:55:17;5.00;;;3.83;;
32639;SDS011;19049;52.524;11.468;2024-01-30T04:57:43;5.97;;;4.20;;
32639;SDS011;19049;52.524;11.468;2024-01-30T05:00:08;6.27;;;3.73;;
32639;SDS011;19049;52.524;11.468;2024-01-30T05:02:34;5.13;;;3.67;;
32639;SDS011;19049;52.524;11.468;2024-01-30T05:05:00;3.90;;;3.13;;
32639;SDS011;19049;52.524;11.468;2024-01-30T05:07:25;5.27;;;3.70;;
32639;SDS011;19049;52.524;11.468;2024-01-30T05:09:51;3.80;;;3.33;;
32639;SDS011;19049;52.524;11.468;2024-01-30T05:12:17;5.03;;;3.60;;
32639;SDS011;19049;52.524;11.468;2024-01-30T05:14:42;7.50;;;4.50;;
32639;SDS011;19049;52.524;11.468;2024-01-30T05:17:08;5.97;;;4.30;;
32639;SDS011;19049;52.524;11.468;2024-01-30T05:19:35;5.53;;;3.90;;
32639;SDS011;19049;52.524;11.468;2024-01-30T05:22:00;5.93;;;4.20;;
32639;SDS011;19049;52.524;11.468;2024-01-30T05:24:26;10.67;;;5.53;;
32639;SDS011;19049;52.524;11.468;2024-01-30T05:26:51;8.23;;;6.00;;
32639;SDS011;19049;52.524;11.468;2024-01-30T05:29:17;9.87;;;6.30;;
32639;SDS011;19049;52.524;11.468;2024-01-30T05:31:42;10.63;;;6.80;;
32639;SDS011;19049;52.524;11.468;2024-01-30T05:34:08;9.77;;;5.40;;
32639;SDS011;19049;52.524;11.468;2024-01-30T05:36:34;15.60;;;8.10;;
32639;SDS011;19049;52.524;11.468;2024-01-30T05:39:00;13.97;;;9.13;;
32639;SDS011;19049;52.524;11.468;2024-01-30T05:41:25;11.33;;;7.27;;
32639;SDS011;19049;52.524;11.468;2024-01-30T05:43:51;9.87;;;7.60;;
32639;SDS011;19049;52.524;11.468;2024-01-30T05:46:16;10.93;;;7.63;;
32639;SDS011;19049;52.524;11.468;2024-01-30T05:48:42;10.17;;;7.13;;
32639;SDS011;19049;52.524;11.468;2024-01-30T05:51:08;8.20;;;6.27;;
32639;SDS011;19049;52.524;11.468;2024-01-30T05:53:34;10.43;;;7.00;;
32639;SDS011;19049;52.524;11.468;2024-01-30T05:56:03;9.67;;;6.67;;
32639;SDS011;19049;52.524;11.468;2024-01-30T05:58:29;9.37;;;5.83;;
32639;SDS011;19049;52.524;11.468;2024-01-30T06:00:56;9.10;;;6.30;;
32639;SDS011;19049;52.524;11.468;2024-01-30T06:03:21;8.73;;;6.23;;
32639;SDS011;19049;52.524;11.468;2024-01-30T06:05:47;10.90;;;5.93;;
32639;SDS011;19049;52.524;11.468;2024-01-30T06:08:12;8.77;;;5.10;;
32639;SDS011;19049;52.524;11.468;2024-01-30T06:10:38;7.63;;;5.33;;
32639;SDS011;19049;52.524;11.468;2024-01-30T06:13:04;7.33;;;5.10;;
32639;SDS011;19049;52.524;11.468;2024-01-30T06:15:29;5.67;;;4.67;;
32639;SDS011;19049;52.524;11.468;2024-01-30T06:17:55;9.50;;;4.67;;
32639;SDS011;19049;52.524;11.468;2024-01-30T06:20:20;6.87;;;4.57;;
32639;SDS011;19049;52.524;11.468;2024-01-30T06:22:46;6.40;;;4.57;;
32639;SDS011;19049;52.524;11.468;2024-01-30T06:25:11;8.73;;;5.23;;
32639;SDS011;19049;52.524;11.468;2024-01-30T06:27:37;8.20;;;5.83;;
32639;SDS011;19049;52.524;11.468;2024-01-30T06:30:03;8.60;;;5.83;;
32639;SDS011;19049;52.524;11.468;2024-01-30T06:32:30;8.43;;;6.20;;
32639;SDS011;19049;52.524;11.468;2024-01-30T06:34:59;8.70;;;5.87;;
32639;SDS011;19049;52.524;11.468;2024-01-30T06:37:25;7.13;;;5.53;;
32639;SDS011;19049;52.524;11.468;2024-01-30T06:39:50;7.77;;;5.03;;
32639;SDS011;19049;52.524;11.468;2024-01-30T06:42:18;9.57;;;6.10;;
32639;SDS011;19049;52.524;11.468;2024-01-30T06:44:44;8.80;;;5.07;;
32639;SDS011;19049;52.524;11.468;2024-01-30T06:47:10;7.80;;;5.10;;
32639;SDS011;19049;52.524;11.468;2024-01-30T06:49:36;6.37;;;4.60;;
32639;SDS011;19049;52.524;11.468;2024-01-30T06:52:07;6.53;;;4.73;;
32639;SDS011;19049;52.524;11.468;2024-01-30T06:54:32;6.27;;;4.50;;
32639;SDS011;19049;52.524;11.468;2024-01-30T06:56:58;9.47;;;5.60;;
32639;SDS011;19049;52.524;11.468;2024-01-30T06:59:24;8.80;;;4.60;;
32639;SDS011;19049;52.524;11.468;2024-01-30T07:01:50;7.07;;;4.90;;
32639;SDS011;19049;52.524;11.468;2024-01-30T07:04:15;10.30;;;6.67;;
32639;SDS011;19049;52.524;11.468;2024-01-30T07:06:41;8.87;;;6.30;;
32639;SDS011;19049;52.524;11.468;2024-01-30T07:09:07;7.47;;;5.23;;
32639;SDS011;19049;52.524;11.468;2024-01-30T07:11:33;7.90;;;5.30;;
32639;SDS011;19049;52.524;11.468;2024-01-30T07:13:59;9.53;;;6.03;;
32639;SDS011;19049;52.524;11.468;2024-01-30T07:16:24;11.33;;;6.87;;
32639;SDS011;19049;52.524;11.468;2024-01-30T07:18:50;9.80;;;6.00;;
32639;SDS011;19049;52.524;11.468;2024-01-30T07:21:16;9.37;;;6.20;;
32639;SDS011;19049;52.524;11.468;2024-01-30T07:23:42;9.17;;;6.50;;
32639;SDS011;19049;52.524;11.468;2024-01-30T07:26:08;10.10;;;6.90;;
32639;SDS011;19049;52.524;11.468;2024-01-30T07:28:34;10.77;;;7.10;;
32639;SDS011;19049;52.524;11.468;2024-01-30T07:31:00;11.60;;;7.30;;
32639;SDS011;19049;52.524;11.468;2024-01-30T07:33:26;12.07;;;7.33;;
32639;SDS011;19049;52.524;11.468;2024-01-30T07:35:52;10.77;;;7.10;;
32639;SDS011;19049;52.524;11.468;2024-01-30T07:38:18;9.10;;;6.57;;
32639;SDS011;19049;52.524;11.468;2024-01-30T07:40:44;10.67;;;6.93;;
32639;SDS011;19049;52.524;11.468;2024-01-30T07:43:09;9.47;;;6.70;;
32639;SDS011;19049;52.524;11.468;2024-01-30T07:45:35;8.40;;;6.10;;
32639;SDS011;19049;52.524;11.468;2024-01-30T07:48:02;11.77;;;7.70;;
32639;SDS011;19049;52.524;11.468;2024-01-30T07:50:28;10.63;;;7.63;;
32639;SDS011;19049;52.524;11.468;2024-01-30T07:52:55;10.93;;;7.23;;
32639;SDS011;19049;52.524;11.468;2024-01-30T07:55:21;10.27;;;7.40;;
32639;SDS011;19049;52.524;11.468;2024-01-30T07:57:52;15.67;;;8.17;;
32639;SDS011;19049;52.524;11.468;2024-01-30T08:00:18;12.23;;;8.47;;
32639;SDS011;19049;52.524;11.468;2024-01-30T08:02:45;13.40;;;8.90;;
32639;SDS011;19049;52.524;11.468;2024-01-30T08:05:11;15.67;;;8.77;;
32639;SDS011;19049;52.524;11.468;2024-01-30T08:07:36;12.37;;;8.30;;
32639;SDS011;19049;52.524;11.468;2024-01-30T08:10:02;16.40;;;10.10;;
32639;SDS011;19049;52.524;11.468;2024-01-30T08:12:28;13.57;;;8.47;;
32639;SDS011;19049;52.524;11.468;2024-01-30T08:14:54;10.07;;;6.90;;
32639;SDS011;19049;52.524;11.468;2024-01-30T08:17:19;9.17;;;6.47;;
32639;SDS011;19049;52.524;11.468;2024-01-30T08:19:45;11.03;;;6.80;;
32639;SDS011;19049;52.524;11.468;2024-01-30T08:22:11;11.07;;;6.93;;
32639;SDS011;19049;52.524;11.468;2024-01-30T08:24:37;8.07;;;6.50;;
32639;SDS011;19049;52.524;11.468;2024-01-30T08:27:02;9.90;;;6.93;;
32639;SDS011;19049;52.524;11.468;2024-01-30T08:29:30;9.83;;;6.87;;
32639;SDS011;19049;52.524;11.468;2024-01-30T08:31:55;12.03;;;8.17;;
32639;SDS011;19049;52.524;11.468;2024-01-30T08:34:21;11.47;;;9.40;;
32639;SDS011;19049;52.524;11.468;2024-01-30T08:36:46;17.20;;;10.90;;
32639;SDS011;19049;52.524;11.468;2024-01-30T08:39:13;12.60;;;9.40;;
32639;SDS011;19049;52.524;11.468;2024-01-30T08:41:39;14.37;;;9.90;;
32639;SDS011;19049;52.524;11.468;2024-01-30T08:44:05;16.80;;;11.97;;
32639;SDS011;19049;52.524;11.468;2024-01-30T08:46:30;15.93;;;11.40;;
32639;SDS011;19049;52.524;11.468;2024-01-30T08:48:56;14.13;;;10.40;;
32639;SDS011;19049;52.524;11.468;2024-01-30T08:51:21;13.20;;;9.80;;
32639;SDS011;19049;52.524;11.468;2024-01-30T08:53:47;11.00;;;8.53;;
32639;SDS011;19049;52.524;11.468;2024-01-30T08:56:12;12.57;;;9.20;;
32639;SDS011;19049;52.524;11.468;2024-01-30T08:58:38;11.97;;;8.23;;
32639;SDS011;19049;52.524;11.468;2024-01-30T09:01:04;10.40;;;8.97;;
32639;SDS011;19049;52.524;11.468;2024-01-30T09:03:31;11.40;;;8.40;;
32639;SDS011;19049;52.524;11.468;2024-01-30T09:05:56;9.70;;;7.50;;
32639;SDS011;19049;52.524;11.468;2024-01-30T09:08:22;9.23;;;7.03;;
32639;SDS011;19049;52.524;11.468;2024-01-30T09:10:47;9.60;;;6.87;;
32639;SDS011;19049;52.524;11.468;2024-01-30T09:13:14;7.53;;;6.27;;
32639;SDS011;19049;52.524;11.468;2024-01-30T09:15:40;7.13;;;5.43;;
32639;SDS011;19049;52.524;11.468;2024-01-30T09:18:06;6.87;;;5.37;;
32639;SDS011;19049;52.524;11.468;2024-01-30T09:20:32;6.90;;;5.43;;
32639;SDS011;19049;52.524;11.468;2024-01-30T09:22:58;6.53;;;5.20;;
32639;SDS011;19049;52.524;11.468;2024-01-30T09:25:23;8.00;;;5.60;;
32639;SDS011;19049;52.524;11.468;2024-01-30T09:27:49;6.27;;;4.83;;
32639;SDS011;19049;52.524;11.468;2024-01-30T09:30:14;8.27;;;6.50;;
32639;SDS011;19049;52.524;11.468;2024-01-30T09:32:40;7.87;;;5.80;;
32639;SDS011;19049;52.524;11.468;2024-01-30T09:35:06;7.07;;;5.40;;
32639;SDS011;19049;52.524;11.468;2024-01-30T09:37:32;6.23;;;4.90;;
32639;SDS011;19049;52.524;11.468;2024-01-30T09:39:58;6.27;;;5.23;;
32639;SDS011;19049;52.524;11.468;2024-01-30T09:42:26;7.40;;;5.00;;
32639;SDS011;19049;52.524;11.468;2024-01-30T09:44:53;5.80;;;4.83;;
32639;SDS011;19049;52.524;11.468;2024-01-30T09:47:18;5.23;;;4.57;;
32639;SDS011;19049;52.524;11.468;2024-01-30T09:49:44;7.00;;;4.50;;
32639;SDS011;19049;52.524;11.468;2024-01-30T09:52:10;5.33;;;4.47;;
32639;SDS011;19049;52.524;11.468;2024-01-30T09:54:36;6.17;;;4.57;;
32639;SDS011;19049;52.524;11.468;2024-01-30T09:57:04;5.83;;;5.00;;
32639;SDS011;19049;52.524;11.468;2024-01-30T09:59:29;6.43;;;4.77;;
32639;SDS011;19049;52.524;11.468;2024-01-30T10:01:55;4.53;;;4.10;;
32639;SDS011;19049;52.524;11.468;2024-01-30T10:04:22;7.33;;;5.10;;
32639;SDS011;19049;52.524;11.468;2024-01-30T10:06:48;5.27;;;4.50;;
32639;SDS011;19049;52.524;11.468;2024-01-30T10:09:14;5.20;;;4.50;;
32639;SDS011;19049;52.524;11.468;2024-01-30T10:11:40;7.50;;;5.10;;
32639;SDS011;19049;52.524;11.468;2024-01-30T10:14:05;7.07;;;4.60;;
32639;SDS011;19049;52.524;11.468;2024-01-30T10:16:31;6.03;;;4.40;;
32639;SDS011;19049;52.524;11.468;2024-01-30T10:18:56;8.07;;;5.23;;
32639;SDS011;19049;52.524;11.468;2024-01-30T10:21:22;6.63;;;5.03;;
32639;SDS011;19049;52.524;11.468;2024-01-30T10:23:49;6.13;;;4.73;;
32639;SDS011;19049;52.524;11.468;2024-01-30T10:26:16;6.47;;;4.33;;
32639;SDS011;19049;52.524;11.468;2024-01-30T10:28:42;5.67;;;4.57;;
32639;SDS011;19049;52.524;11.468;2024-01-30T10:31:07;6.30;;;4.93;;
32639;SDS011;19049;52.524;11.468;2024-01-30T10:33:33;5.03;;;4.50;;
32639;SDS011;19049;52.524;11.468;2024-01-30T10:36:03;7.17;;;5.00;;
32639;SDS011;19049;52.524;11.468;2024-01-30T10:38:30;6.90;;;5.00;;
32639;SDS011;19049;52.524;11.468;2024-01-30T10:40:57;6.13;;;5.00;;
32639;SDS011;19049;52.524;11.468;2024-01-30T10:43:30;6.17;;;5.10;;
32639;SDS011;19049;52.524;11.468;2024-01-30T10:46:08;6.97;;;5.67;;
32639;SDS011;19049;52.524;11.468;2024-01-30T10:48:42;6.17;;;5.07;;
32639;SDS011;19049;52.524;11.468;2024-01-30T10:51:11;5.10;;;4.43;;
32639;SDS011;19049;52.524;11.468;2024-01-30T10:53:39;8.67;;;5.10;;
32639;SDS011;19049;52.524;11.468;2024-01-30T10:56:05;8.23;;;5.30;;
32639;SDS011;19049;52.524;11.468;2024-01-30T10:58:31;6.40;;;4.77;;
32639;SDS011;19049;52.524;11.468;2024-01-30T11:00:57;5.53;;;4.60;;
32639;SDS011;19049;52.524;11.468;2024-01-30T11:03:24;6.70;;;5.40;;
32639;SDS011;19049;52.524;11.468;2024-01-30T11:05:50;5.17;;;4.67;;
32639;SDS011;19049;52.524;11.468;2024-01-30T11:08:24;7.17;;;5.20;;
32639;SDS011;19049;52.524;11.468;2024-01-30T11:10:57;8.97;;;5.20;;
32639;SDS011;19049;52.524;11.468;2024-01-30T11:13:30;7.10;;;4.90;;
32639;SDS011;19049;52.524;11.468;2024-01-30T11:15:59;7.13;;;4.43;;
32639;SDS011;19049;52.524;11.468;2024-01-30T11:18:28;6.77;;;4.80;;
32639;SDS011;19049;52.524;11.468;2024-01-30T11:20:58;6.20;;;4.57;;
32639;SDS011;19049;52.524;11.468;2024-01-30T11:23:26;4.87;;;4.30;;
32639;SDS011;19049;52.524;11.468;2024-01-30T11:25:52;6.30;;;4.57;;
32639;SDS011;19049;52.524;11.468;2024-01-30T11:28:18;6.43;;;5.03;;
32639;SDS011;19049;52.524;11.468;2024-01-30T11:30:45;6.77;;;4.37;;
32639;SDS011;19049;52.524;11.468;2024-01-30T11:33:12;5.57;;;4.43;;
32639;SDS011;19049;52.524;11.468;2024-01-30T11:35:42;5.23;;;3.97;;
32639;SDS011;19049;52.524;11.468;2024-01-30T11:38:09;7.37;;;4.87;;
32639;SDS011;19049;52.524;11.468;2024-01-30T11:40:37;5.70;;;4.17;;
32639;SDS011;19049;52.524;11.468;2024-01-30T11:43:04;6.03;;;4.37;;
32639;SDS011;19049;52.524;11.468;2024-01-30T11:45:31;5.30;;;4.10;;
32639;SDS011;19049;52.524;11.468;2024-01-30T11:47:57;7.10;;;4.80;;
32639;SDS011;19049;52.524;11.468;2024-01-30T11:50:25;6.50;;;4.30;;
32639;SDS011;19049;52.524;11.468;2024-01-30T11:52:50;5.80;;;4.50;;
32639;SDS011;19049;52.524;11.468;2024-01-30T11:55:16;5.03;;;4.10;;
32639;SDS011;19049;52.524;11.468;2024-01-30T11:57:42;6.07;;;4.27;;
32639;SDS011;19049;52.524;11.468;2024-01-30T12:00:16;5.23;;;4.33;;
32639;SDS011;19049;52.524;11.468;2024-01-30T12:02:43;4.97;;;4.00;;
32639;SDS011;19049;52.524;11.468;2024-01-30T12:05:09;5.57;;;4.00;;
32639;SDS011;19049;52.524;11.468;2024-01-30T12:07:35;5.53;;;4.03;;
32639;SDS011;19049;52.524;11.468;2024-01-30T12:10:01;6.03;;;4.57;;
32639;SDS011;19049;52.524;11.468;2024-01-30T12:12:27;5.63;;;4.57;;
32639;SDS011;19049;52.524;11.468;2024-01-30T12:14:54;7.57;;;4.80;;
32639;SDS011;19049;52.524;11.468;2024-01-30T12:17:33;6.57;;;4.37;;
32639;SDS011;19049;52.524;11.468;2024-01-30T12:20:06;5.10;;;4.00;;
32639;SDS011;19049;52.524;11.468;2024-01-30T12:22:36;9.73;;;4.83;;
32639;SDS011;19049;52.524;11.468;2024-01-30T12:25:07;6.20;;;4.20;;
32639;SDS011;19049;52.524;11.468;2024-01-30T12:27:33;5.60;;;4.07;;
32639;SDS011;19049;52.524;11.468;2024-01-30T12:29:59;5.70;;;4.17;;
32639;SDS011;19049;52.524;11.468;2024-01-30T12:32:25;8.77;;;3.80;;
32639;SDS011;19049;52.524;11.468;2024-01-30T12:34:54;5.17;;;3.63;;
32639;SDS011;19049;52.524;11.468;2024-01-30T12:37:20;5.40;;;3.53;;
32639;SDS011;19049;52.524;11.468;2024-01-30T12:39:47;5.63;;;4.27;;
32639;SDS011;19049;52.524;11.468;2024-01-30T12:42:13;6.23;;;4.00;;
32639;SDS011;19049;52.524;11.468;2024-01-30T12:44:39;6.13;;;4.10;;
32639;SDS011;19049;52.524;11.468;2024-01-30T12:47:05;4.23;;;3.47;;
32639;SDS011;19049;52.524;11.468;2024-01-30T12:49:33;5.93;;;3.93;;
32639;SDS011;19049;52.524;11.468;2024-01-30T12:51:58;4.87;;;3.43;;
32639;SDS011;19049;52.524;11.468;2024-01-30T12:54:24;7.07;;;3.73;;
32639;SDS011;19049;52.524;11.468;2024-01-30T12:56:50;6.23;;;3.97;;
32639;SDS011;19049;52.524;11.468;2024-01-30T12:59:15;5.17;;;3.30;;
32639;SDS011;19049;52.524;11.468;2024-01-30T13:01:41;7.47;;;4.13;;
32639;SDS011;19049;52.524;11.468;2024-01-30T13:04:06;4.13;;;3.43;;
32639;SDS011;19049;52.524;11.468;2024-01-30T13:06:32;5.97;;;3.47;;
32639;SDS011;19049;52.524;11.468;2024-01-30T13:08:58;4.30;;;3.33;;
32639;SDS011;19049;52.524;11.468;2024-01-30T13:11:23;6.13;;;3.93;;
32639;SDS011;19049;52.524;11.468;2024-01-30T13:13:50;3.93;;;3.53;;
32639;SDS011;19049;52.524;11.468;2024-01-30T13:16:16;5.53;;;3.57;;
32639;SDS011;19049;52.524;11.468;2024-01-30T13:18:41;2.93;;;2.63;;
32639;SDS011;19049;52.524;11.468;2024-01-30T13:21:07;5.20;;;3.50;;
32639;SDS011;19049;52.524;11.468;2024-01-30T13:23:33;4.80;;;3.07;;
32639;SDS011;19049;52.524;11.468;2024-01-30T13:25:58;5.87;;;4.17;;
32639;SDS011;19049;52.524;11.468;2024-01-30T13:28:24;4.23;;;3.60;;
32639;SDS011;19049;52.524;11.468;2024-01-30T13:30:50;5.63;;;3.73;;
32639;SDS011;19049;52.524;11.468;2024-01-30T13:33:16;6.40;;;3.70;;
32639;SDS011;19049;52.524;11.468;2024-01-30T13:35:42;3.87;;;3.47;;
32639;SDS011;19049;52.524;11.468;2024-01-30T13:38:08;3.53;;;3.13;;
32639;SDS011;19049;52.524;11.468;2024-01-30T13:40:33;4.73;;;3.40;;
32639;SDS011;19049;52.524;11.468;2024-01-30T13:42:59;5.53;;;3.50;;
32639;SDS011;19049;52.524;11.468;2024-01-30T13:45:24;4.30;;;3.57;;
32639;SDS011;19049;52.524;11.468;2024-01-30T13:47:50;4.07;;;3.57;;
32639;SDS011;19049;52.524;11.468;2024-01-30T13:50:15;4.17;;;3.30;;
32639;SDS011;19049;52.524;11.468;2024-01-30T13:52:42;5.00;;;3.93;;
32639;SDS011;19049;52.524;11.468;2024-01-30T13:55:08;4.63;;;3.23;;
32639;SDS011;19049;52.524;11.468;2024-01-30T13:57:34;5.00;;;3.43;;
32639;SDS011;19049;52.524;11.468;2024-01-30T14:00:01;4.83;;;3.10;;
32639;SDS011;19049;52.524;11.468;2024-01-30T14:02:30;5.83;;;3.40;;
32639;SDS011;19049;52.524;11.468;2024-01-30T14:04:55;6.77;;;4.20;;
32639;SDS011;19049;52.524;11.468;2024-01-30T14:07:21;7.60;;;4.10;;
32639;SDS011;19049;52.524;11.468;2024-01-30T14:09:47;5.90;;;3.90;;
32639;SDS011;19049;52.524;11.468;2024-01-30T14:12:13;6.50;;;3.70;;
32639;SDS011;19049;52.524;11.468;2024-01-30T14:14:38;4.57;;;3.10;;
32639;SDS011;19049;52.524;11.468;2024-01-30T14:17:07;4.50;;;3.03;;
32639;SDS011;19049;52.524;11.468;2024-01-30T14:19:35;3.67;;;3.10;;
32639;SDS011;19049;52.524;11.468;2024-01-30T14:22:01;5.10;;;3.00;;
32639;SDS011;19049;52.524;11.468;2024-01-30T14:24:27;4.10;;;3.00;;
32639;SDS011;19049;52.524;11.468;2024-01-30T14:26:52;4.40;;;3.20;;